sensor_id;sensor_type;location;lat;lon;timestamp;P1;durP1;ratioP1;P2;durP2;ratioP2
836;SDS011;400;53.550;9.932;2022-10-18T00:01:25;16.00;;;12.20;;
836;SDS011;400;53.550;9.932;2022-10-18T00:03:58;13.23;;;11.93;;
836;SDS011;400;53.550;9.932;2022-10-18T00:06:25;13.77;;;12.37;;
836;SDS011;400;53.550;9.932;2022-10-18T00:08:55;13.70;;;12.23;;
836;SDS011;400;53.550;9.932;2022-10-18T00:11:26;13.90;;;11.93;;
836;SDS011;400;53.550;9.932;2022-10-18T00:13:56;13.47;;;12.10;;
836;SDS011;400;53.550;9.932;2022-10-18T00:16:28;12.93;;;11.60;;
836;SDS011;400;53.550;9.932;2022-10-18T00:18:55;14.50;;;12.80;;
836;SDS011;400;53.550;9.932;2022-10-18T00:21:22;19.03;;;13.30;;
836;SDS011;400;53.550;9.932;2022-10-18T00:23:51;14.67;;;13.17;;
836;SDS011;400;53.550;9.932;2022-10-18T00:26:19;16.63;;;13.53;;
836;SDS011;400;53.550;9.932;2022-10-18T00:28:49;14.63;;;13.07;;
836;SDS011;400;53.550;9.932;2022-10-18T00:31:19;15.20;;;13.57;;
836;SDS011;400;53.550;9.932;2022-10-18T00:33:48;18.43;;;14.30;;
836;SDS011;400;53.550;9.932;2022-10-18T00:36:18;15.30;;;13.80;;
836;SDS011;400;53.550;9.932;2022-10-18T00:38:45;15.80;;;14.17;;
836;SDS011;400;53.550;9.932;2022-10-18T00:41:14;19.00;;;13.30;;
836;SDS011;400;53.550;9.932;2022-10-18T00:43:50;16.97;;;14.77;;
836;SDS011;400;53.550;9.932;2022-10-18T00:46:24;17.33;;;15.53;;
836;SDS011;400;53.550;9.932;2022-10-18T00:48:57;18.20;;;16.00;;
836;SDS011;400;53.550;9.932;2022-10-18T00:51:27;17.73;;;14.70;;
836;SDS011;400;53.550;9.932;2022-10-18T00:53:57;19.70;;;14.90;;
836;SDS011;400;53.550;9.932;2022-10-18T00:56:24;15.70;;;14.00;;
836;SDS011;400;53.550;9.932;2022-10-18T00:58:53;18.17;;;13.60;;
836;SDS011;400;53.550;9.932;2022-10-18T01:01:21;19.30;;;16.20;;
836;SDS011;400;53.550;9.932;2022-10-18T01:03:49;16.80;;;13.67;;
836;SDS011;400;53.550;9.932;2022-10-18T01:06:17;20.50;;;15.40;;
836;SDS011;400;53.550;9.932;2022-10-18T01:08:49;17.70;;;15.17;;
836;SDS011;400;53.550;9.932;2022-10-18T01:11:35;20.90;;;16.53;;
836;SDS011;400;53.550;9.932;2022-10-18T01:14:14;21.93;;;16.23;;
836;SDS011;400;53.550;9.932;2022-10-18T01:16:52;19.00;;;16.60;;
836;SDS011;400;53.550;9.932;2022-10-18T01:19:32;21.87;;;15.97;;
836;SDS011;400;53.550;9.932;2022-10-18T01:22:16;18.83;;;16.73;;
836;SDS011;400;53.550;9.932;2022-10-18T01:24:58;21.40;;;18.20;;
836;SDS011;400;53.550;9.932;2022-10-18T01:27:42;19.73;;;16.87;;
836;SDS011;400;53.550;9.932;2022-10-18T01:30:31;22.77;;;17.97;;
836;SDS011;400;53.550;9.932;2022-10-18T01:33:06;20.80;;;18.37;;
836;SDS011;400;53.550;9.932;2022-10-18T01:35:41;21.90;;;18.00;;
836;SDS011;400;53.550;9.932;2022-10-18T01:38:13;21.97;;;17.73;;
836;SDS011;400;53.550;9.932;2022-10-18T01:40:44;22.10;;;18.33;;
836;SDS011;400;53.550;9.932;2022-10-18T01:43:15;29.20;;;19.47;;
836;SDS011;400;53.550;9.932;2022-10-18T01:45:46;25.70;;;18.50;;
836;SDS011;400;53.550;9.932;2022-10-18T01:48:14;25.23;;;18.20;;
836;SDS011;400;53.550;9.932;2022-10-18T01:50:42;24.67;;;19.20;;
836;SDS011;400;53.550;9.932;2022-10-18T01:53:21;24.97;;;17.77;;
836;SDS011;400;53.550;9.932;2022-10-18T01:55:51;24.07;;;18.70;;
836;SDS011;400;53.550;9.932;2022-10-18T01:58:28;22.70;;;16.60;;
836;SDS011;400;53.550;9.932;2022-10-18T02:01:03;20.53;;;16.80;;
836;SDS011;400;53.550;9.932;2022-10-18T02:03:36;20.70;;;17.50;;
836;SDS011;400;53.550;9.932;2022-10-18T02:06:12;23.00;;;17.67;;
836;SDS011;400;53.550;9.932;2022-10-18T02:08:48;25.67;;;18.20;;
836;SDS011;400;53.550;9.932;2022-10-18T02:11:21;25.97;;;18.90;;
836;SDS011;400;53.550;9.932;2022-10-18T02:13:51;23.80;;;18.67;;
836;SDS011;400;53.550;9.932;2022-10-18T02:16:24;23.73;;;18.97;;
836;SDS011;400;53.550;9.932;2022-10-18T02:18:56;27.10;;;20.13;;
836;SDS011;400;53.550;9.932;2022-10-18T02:21:27;20.73;;;18.50;;
836;SDS011;400;53.550;9.932;2022-10-18T02:23:55;27.53;;;19.67;;
836;SDS011;400;53.550;9.932;2022-10-18T02:26:24;25.70;;;19.47;;
836;SDS011;400;53.550;9.932;2022-10-18T02:28:51;25.07;;;18.20;;
836;SDS011;400;53.550;9.932;2022-10-18T02:31:18;22.50;;;18.23;;
836;SDS011;400;53.550;9.932;2022-10-18T02:33:54;26.87;;;19.47;;
836;SDS011;400;53.550;9.932;2022-10-18T02:36:25;28.20;;;20.00;;
836;SDS011;400;53.550;9.932;2022-10-18T02:38:58;24.23;;;19.63;;
836;SDS011;400;53.550;9.932;2022-10-18T02:41:29;23.57;;;20.10;;
836;SDS011;400;53.550;9.932;2022-10-18T02:43:56;27.70;;;21.03;;
836;SDS011;400;53.550;9.932;2022-10-18T02:46:23;30.17;;;20.20;;
836;SDS011;400;53.550;9.932;2022-10-18T02:48:51;24.60;;;20.30;;
836;SDS011;400;53.550;9.932;2022-10-18T02:51:18;26.77;;;20.50;;
836;SDS011;400;53.550;9.932;2022-10-18T02:53:45;23.87;;;18.47;;
836;SDS011;400;53.550;9.932;2022-10-18T02:56:12;28.20;;;20.33;;
836;SDS011;400;53.550;9.932;2022-10-18T02:58:38;23.50;;;20.27;;
836;SDS011;400;53.550;9.932;2022-10-18T03:01:05;27.93;;;20.00;;
836;SDS011;400;53.550;9.932;2022-10-18T03:03:32;29.40;;;19.07;;
836;SDS011;400;53.550;9.932;2022-10-18T03:06:00;30.47;;;21.90;;
836;SDS011;400;53.550;9.932;2022-10-18T03:08:27;24.77;;;19.70;;
836;SDS011;400;53.550;9.932;2022-10-18T03:10:54;25.30;;;20.13;;
836;SDS011;400;53.550;9.932;2022-10-18T03:13:23;26.97;;;21.00;;
836;SDS011;400;53.550;9.932;2022-10-18T03:15:50;25.93;;;19.70;;
836;SDS011;400;53.550;9.932;2022-10-18T03:18:18;30.23;;;20.30;;
836;SDS011;400;53.550;9.932;2022-10-18T03:20:45;29.63;;;20.50;;
836;SDS011;400;53.550;9.932;2022-10-18T03:23:13;30.17;;;21.53;;
836;SDS011;400;53.550;9.932;2022-10-18T03:25:39;28.50;;;20.20;;
836;SDS011;400;53.550;9.932;2022-10-18T03:28:10;33.40;;;20.50;;
836;SDS011;400;53.550;9.932;2022-10-18T03:30:40;27.60;;;20.50;;
836;SDS011;400;53.550;9.932;2022-10-18T03:33:10;31.70;;;20.20;;
836;SDS011;400;53.550;9.932;2022-10-18T03:35:37;28.70;;;21.57;;
836;SDS011;400;53.550;9.932;2022-10-18T03:38:04;30.20;;;20.37;;
836;SDS011;400;53.550;9.932;2022-10-18T03:40:32;30.93;;;21.10;;
836;SDS011;400;53.550;9.932;2022-10-18T03:42:58;27.40;;;20.33;;
836;SDS011;400;53.550;9.932;2022-10-18T03:45:25;30.47;;;22.13;;
836;SDS011;400;53.550;9.932;2022-10-18T03:47:52;28.27;;;20.00;;
836;SDS011;400;53.550;9.932;2022-10-18T03:50:19;27.47;;;21.83;;
836;SDS011;400;53.550;9.932;2022-10-18T03:52:46;27.10;;;20.50;;
836;SDS011;400;53.550;9.932;2022-10-18T03:55:15;27.23;;;22.63;;
836;SDS011;400;53.550;9.932;2022-10-18T03:57:44;28.47;;;22.03;;
836;SDS011;400;53.550;9.932;2022-10-18T04:00:11;28.20;;;22.97;;
836;SDS011;400;53.550;9.932;2022-10-18T04:02:39;34.43;;;23.73;;
836;SDS011;400;53.550;9.932;2022-10-18T04:05:06;30.70;;;22.50;;
836;SDS011;400;53.550;9.932;2022-10-18T04:07:34;34.30;;;24.17;;
836;SDS011;400;53.550;9.932;2022-10-18T04:10:01;36.70;;;24.87;;
836;SDS011;400;53.550;9.932;2022-10-18T04:12:28;31.83;;;25.67;;
836;SDS011;400;53.550;9.932;2022-10-18T04:14:56;31.43;;;24.20;;
836;SDS011;400;53.550;9.932;2022-10-18T04:17:23;31.57;;;23.97;;
836;SDS011;400;53.550;9.932;2022-10-18T04:19:50;30.27;;;22.47;;
836;SDS011;400;53.550;9.932;2022-10-18T04:22:17;37.93;;;22.20;;
836;SDS011;400;53.550;9.932;2022-10-18T04:24:43;34.67;;;24.47;;
836;SDS011;400;53.550;9.932;2022-10-18T04:27:10;32.10;;;23.43;;
836;SDS011;400;53.550;9.932;2022-10-18T04:29:37;37.57;;;24.30;;
836;SDS011;400;53.550;9.932;2022-10-18T04:32:07;32.30;;;22.70;;
836;SDS011;400;53.550;9.932;2022-10-18T04:34:34;29.77;;;22.20;;
836;SDS011;400;53.550;9.932;2022-10-18T04:37:01;30.80;;;22.97;;
836;SDS011;400;53.550;9.932;2022-10-18T04:39:31;30.00;;;22.70;;
836;SDS011;400;53.550;9.932;2022-10-18T04:41:58;32.50;;;24.93;;
836;SDS011;400;53.550;9.932;2022-10-18T04:44:27;32.33;;;24.30;;
836;SDS011;400;53.550;9.932;2022-10-18T04:46:54;29.67;;;23.40;;
836;SDS011;400;53.550;9.932;2022-10-18T04:49:24;36.20;;;25.50;;
836;SDS011;400;53.550;9.932;2022-10-18T04:51:51;34.47;;;23.47;;
836;SDS011;400;53.550;9.932;2022-10-18T04:54:18;38.10;;;25.00;;
836;SDS011;400;53.550;9.932;2022-10-18T04:56:46;34.27;;;26.33;;
836;SDS011;400;53.550;9.932;2022-10-18T04:59:19;38.00;;;27.23;;
836;SDS011;400;53.550;9.932;2022-10-18T05:01:53;35.00;;;24.70;;
836;SDS011;400;53.550;9.932;2022-10-18T05:04:24;52.57;;;24.53;;
836;SDS011;400;53.550;9.932;2022-10-18T05:06:54;38.77;;;24.93;;
836;SDS011;400;53.550;9.932;2022-10-18T05:09:23;38.20;;;25.37;;
836;SDS011;400;53.550;9.932;2022-10-18T05:11:51;32.43;;;23.90;;
836;SDS011;400;53.550;9.932;2022-10-18T05:14:21;37.40;;;25.00;;
836;SDS011;400;53.550;9.932;2022-10-18T05:16:48;43.73;;;27.67;;
836;SDS011;400;53.550;9.932;2022-10-18T05:19:14;36.00;;;24.83;;
836;SDS011;400;53.550;9.932;2022-10-18T05:21:45;39.07;;;26.23;;
836;SDS011;400;53.550;9.932;2022-10-18T05:24:18;42.80;;;24.53;;
836;SDS011;400;53.550;9.932;2022-10-18T05:26:45;34.50;;;24.30;;
836;SDS011;400;53.550;9.932;2022-10-18T05:29:14;35.43;;;24.00;;
836;SDS011;400;53.550;9.932;2022-10-18T05:31:41;37.57;;;24.90;;
836;SDS011;400;53.550;9.932;2022-10-18T05:34:08;36.80;;;25.93;;
836;SDS011;400;53.550;9.932;2022-10-18T05:36:35;37.73;;;24.90;;
836;SDS011;400;53.550;9.932;2022-10-18T05:39:10;36.40;;;24.30;;
836;SDS011;400;53.550;9.932;2022-10-18T05:41:37;39.53;;;24.80;;
836;SDS011;400;53.550;9.932;2022-10-18T05:44:05;34.00;;;24.27;;
836;SDS011;400;53.550;9.932;2022-10-18T05:46:36;38.80;;;24.23;;
836;SDS011;400;53.550;9.932;2022-10-18T05:49:03;35.87;;;24.97;;
836;SDS011;400;53.550;9.932;2022-10-18T05:51:30;33.37;;;23.40;;
836;SDS011;400;53.550;9.932;2022-10-18T05:53:56;33.50;;;23.80;;
836;SDS011;400;53.550;9.932;2022-10-18T05:56:25;33.67;;;23.30;;
836;SDS011;400;53.550;9.932;2022-10-18T05:58:52;29.47;;;21.60;;
836;SDS011;400;53.550;9.932;2022-10-18T06:01:18;34.60;;;21.90;;
836;SDS011;400;53.550;9.932;2022-10-18T06:03:45;32.80;;;21.93;;
836;SDS011;400;53.550;9.932;2022-10-18T06:06:15;29.13;;;20.80;;
836;SDS011;400;53.550;9.932;2022-10-18T06:08:42;38.93;;;21.37;;
836;SDS011;400;53.550;9.932;2022-10-18T06:11:10;28.10;;;20.40;;
836;SDS011;400;53.550;9.932;2022-10-18T06:13:41;32.43;;;21.47;;
836;SDS011;400;53.550;9.932;2022-10-18T06:16:10;26.10;;;20.10;;
836;SDS011;400;53.550;9.932;2022-10-18T06:18:39;29.17;;;20.93;;
836;SDS011;400;53.550;9.932;2022-10-18T06:21:12;30.43;;;19.93;;
836;SDS011;400;53.550;9.932;2022-10-18T06:23:39;31.43;;;19.90;;
836;SDS011;400;53.550;9.932;2022-10-18T06:26:09;28.60;;;19.97;;
836;SDS011;400;53.550;9.932;2022-10-18T06:28:47;26.80;;;17.90;;
836;SDS011;400;53.550;9.932;2022-10-18T06:31:18;29.93;;;20.43;;
836;SDS011;400;53.550;9.932;2022-10-18T06:33:54;26.37;;;16.93;;
836;SDS011;400;53.550;9.932;2022-10-18T06:36:25;26.17;;;17.27;;
836;SDS011;400;53.550;9.932;2022-10-18T06:38:53;20.97;;;17.90;;
836;SDS011;400;53.550;9.932;2022-10-18T06:41:20;24.33;;;17.43;;
836;SDS011;400;53.550;9.932;2022-10-18T06:43:56;22.40;;;16.23;;
836;SDS011;400;53.550;9.932;2022-10-18T06:46:37;23.40;;;16.80;;
836;SDS011;400;53.550;9.932;2022-10-18T06:49:06;24.27;;;16.33;;
836;SDS011;400;53.550;9.932;2022-10-18T06:51:33;26.03;;;17.23;;
836;SDS011;400;53.550;9.932;2022-10-18T06:54:03;21.83;;;15.60;;
836;SDS011;400;53.550;9.932;2022-10-18T06:56:37;24.67;;;17.17;;
836;SDS011;400;53.550;9.932;2022-10-18T06:59:23;24.27;;;16.67;;
836;SDS011;400;53.550;9.932;2022-10-18T07:01:54;26.60;;;16.30;;
836;SDS011;400;53.550;9.932;2022-10-18T07:04:23;21.93;;;16.00;;
836;SDS011;400;53.550;9.932;2022-10-18T07:06:52;21.00;;;16.60;;
836;SDS011;400;53.550;9.932;2022-10-18T07:09:23;21.40;;;16.43;;
836;SDS011;400;53.550;9.932;2022-10-18T07:11:56;22.07;;;15.90;;
836;SDS011;400;53.550;9.932;2022-10-18T07:14:24;18.23;;;14.77;;
836;SDS011;400;53.550;9.932;2022-10-18T07:16:51;25.07;;;15.80;;
836;SDS011;400;53.550;9.932;2022-10-18T07:19:19;24.00;;;17.50;;
836;SDS011;400;53.550;9.932;2022-10-18T07:21:50;26.93;;;17.37;;
836;SDS011;400;53.550;9.932;2022-10-18T07:24:21;21.50;;;16.73;;
836;SDS011;400;53.550;9.932;2022-10-18T07:27:04;23.03;;;16.33;;
836;SDS011;400;53.550;9.932;2022-10-18T07:29:45;26.73;;;16.67;;
836;SDS011;400;53.550;9.932;2022-10-18T07:32:17;23.40;;;15.50;;
836;SDS011;400;53.550;9.932;2022-10-18T07:34:46;20.60;;;14.57;;
836;SDS011;400;53.550;9.932;2022-10-18T07:37:19;20.40;;;13.40;;
836;SDS011;400;53.550;9.932;2022-10-18T07:39:50;17.43;;;14.53;;
836;SDS011;400;53.550;9.932;2022-10-18T07:42:17;16.17;;;13.03;;
836;SDS011;400;53.550;9.932;2022-10-18T07:44:45;19.20;;;15.00;;
836;SDS011;400;53.550;9.932;2022-10-18T07:47:15;21.93;;;15.77;;
836;SDS011;400;53.550;9.932;2022-10-18T07:49:46;20.43;;;14.07;;
836;SDS011;400;53.550;9.932;2022-10-18T07:52:17;22.73;;;15.60;;
836;SDS011;400;53.550;9.932;2022-10-18T07:54:50;44.70;;;38.20;;
836;SDS011;400;53.550;9.932;2022-10-18T07:57:18;48.63;;;42.97;;
836;SDS011;400;53.550;9.932;2022-10-18T07:59:49;18.20;;;14.07;;
836;SDS011;400;53.550;9.932;2022-10-18T08:02:30;21.20;;;14.30;;
836;SDS011;400;53.550;9.932;2022-10-18T08:05:00;19.67;;;13.73;;
836;SDS011;400;53.550;9.932;2022-10-18T08:07:28;19.60;;;15.50;;
836;SDS011;400;53.550;9.932;2022-10-18T08:09:57;23.17;;;14.80;;
836;SDS011;400;53.550;9.932;2022-10-18T08:12:27;21.10;;;14.63;;
836;SDS011;400;53.550;9.932;2022-10-18T08:14:57;18.73;;;14.20;;
836;SDS011;400;53.550;9.932;2022-10-18T08:17:32;18.00;;;13.83;;
836;SDS011;400;53.550;9.932;2022-10-18T08:19:59;18.20;;;14.70;;
836;SDS011;400;53.550;9.932;2022-10-18T08:22:26;20.50;;;14.00;;
836;SDS011;400;53.550;9.932;2022-10-18T08:24:54;21.23;;;15.07;;
836;SDS011;400;53.550;9.932;2022-10-18T08:27:29;19.30;;;14.63;;
836;SDS011;400;53.550;9.932;2022-10-18T08:30:03;17.33;;;12.70;;
836;SDS011;400;53.550;9.932;2022-10-18T08:32:38;17.17;;;13.70;;
836;SDS011;400;53.550;9.932;2022-10-18T08:35:06;16.30;;;11.80;;
836;SDS011;400;53.550;9.932;2022-10-18T08:37:34;14.03;;;12.60;;
836;SDS011;400;53.550;9.932;2022-10-18T08:40:20;16.53;;;11.90;;
836;SDS011;400;53.550;9.932;2022-10-18T08:42:51;16.13;;;12.20;;
836;SDS011;400;53.550;9.932;2022-10-18T08:45:33;15.53;;;11.40;;
836;SDS011;400;53.550;9.932;2022-10-18T08:48:06;15.23;;;12.70;;
836;SDS011;400;53.550;9.932;2022-10-18T08:50:53;18.83;;;14.00;;
836;SDS011;400;53.550;9.932;2022-10-18T08:53:28;20.00;;;13.00;;
836;SDS011;400;53.550;9.932;2022-10-18T08:56:04;15.43;;;12.87;;
836;SDS011;400;53.550;9.932;2022-10-18T08:58:38;12.50;;;11.20;;
836;SDS011;400;53.550;9.932;2022-10-18T09:01:10;13.30;;;11.90;;
836;SDS011;400;53.550;9.932;2022-10-18T09:07:01;14.67;;;12.80;;
836;SDS011;400;53.550;9.932;2022-10-18T09:09:41;16.07;;;11.73;;
836;SDS011;400;53.550;9.932;2022-10-18T09:12:26;16.00;;;11.30;;
836;SDS011;400;53.550;9.932;2022-10-18T09:15:15;15.13;;;11.93;;
836;SDS011;400;53.550;9.932;2022-10-18T09:17:49;16.00;;;11.70;;
836;SDS011;400;53.550;9.932;2022-10-18T09:20:25;18.00;;;11.43;;
836;SDS011;400;53.550;9.932;2022-10-18T09:23:01;18.87;;;11.10;;
836;SDS011;400;53.550;9.932;2022-10-18T09:25:42;11.73;;;10.40;;
836;SDS011;400;53.550;9.932;2022-10-18T09:28:18;29.03;;;24.77;;
836;SDS011;400;53.550;9.932;2022-10-18T09:30:57;15.20;;;13.23;;
836;SDS011;400;53.550;9.932;2022-10-18T09:33:44;15.17;;;10.87;;
836;SDS011;400;53.550;9.932;2022-10-18T09:36:21;12.63;;;11.33;;
836;SDS011;400;53.550;9.932;2022-10-18T09:38:51;14.60;;;10.63;;
836;SDS011;400;53.550;9.932;2022-10-18T09:41:24;11.70;;;10.07;;
836;SDS011;400;53.550;9.932;2022-10-18T09:44:04;12.47;;;10.60;;
836;SDS011;400;53.550;9.932;2022-10-18T09:47:00;13.20;;;9.83;;
836;SDS011;400;53.550;9.932;2022-10-18T09:49:33;12.57;;;10.23;;
836;SDS011;400;53.550;9.932;2022-10-18T09:52:07;14.10;;;9.30;;
836;SDS011;400;53.550;9.932;2022-10-18T09:54:42;11.97;;;10.40;;
836;SDS011;400;53.550;9.932;2022-10-18T09:57:15;12.57;;;11.37;;
836;SDS011;400;53.550;9.932;2022-10-18T09:59:47;15.83;;;10.67;;
836;SDS011;400;53.550;9.932;2022-10-18T10:02:15;12.83;;;9.40;;
836;SDS011;400;53.550;9.932;2022-10-18T10:04:46;10.83;;;9.30;;
836;SDS011;400;53.550;9.932;2022-10-18T10:07:21;14.33;;;10.20;;
836;SDS011;400;53.550;9.932;2022-10-18T10:09:55;12.93;;;9.93;;
836;SDS011;400;53.550;9.932;2022-10-18T10:12:27;16.07;;;11.00;;
836;SDS011;400;53.550;9.932;2022-10-18T10:15:17;15.00;;;11.20;;
836;SDS011;400;53.550;9.932;2022-10-18T10:17:55;12.93;;;11.23;;
836;SDS011;400;53.550;9.932;2022-10-18T10:20:29;12.87;;;10.17;;
836;SDS011;400;53.550;9.932;2022-10-18T10:23:04;14.90;;;11.60;;
836;SDS011;400;53.550;9.932;2022-10-18T10:25:33;11.57;;;9.53;;
836;SDS011;400;53.550;9.932;2022-10-18T10:28:05;13.93;;;10.40;;
836;SDS011;400;53.550;9.932;2022-10-18T10:30:38;14.83;;;11.40;;
836;SDS011;400;53.550;9.932;2022-10-18T10:33:14;13.27;;;10.40;;
836;SDS011;400;53.550;9.932;2022-10-18T10:36:01;11.23;;;9.90;;
836;SDS011;400;53.550;9.932;2022-10-18T10:38:31;16.03;;;11.33;;
836;SDS011;400;53.550;9.932;2022-10-18T10:40:58;13.47;;;11.00;;
836;SDS011;400;53.550;9.932;2022-10-18T10:43:26;13.83;;;10.07;;
836;SDS011;400;53.550;9.932;2022-10-18T10:46:04;11.73;;;10.30;;
836;SDS011;400;53.550;9.932;2022-10-18T10:48:41;14.50;;;11.17;;
836;SDS011;400;53.550;9.932;2022-10-18T10:51:30;12.47;;;10.47;;
836;SDS011;400;53.550;9.932;2022-10-18T10:54:05;10.30;;;8.77;;
836;SDS011;400;53.550;9.932;2022-10-18T10:56:53;10.50;;;9.40;;
836;SDS011;400;53.550;9.932;2022-10-18T10:59:22;11.33;;;8.03;;
836;SDS011;400;53.550;9.932;2022-10-18T11:01:56;15.20;;;7.73;;
836;SDS011;400;53.550;9.932;2022-10-18T11:04:50;12.37;;;10.60;;
836;SDS011;400;53.550;9.932;2022-10-18T11:07:29;9.23;;;8.13;;
836;SDS011;400;53.550;9.932;2022-10-18T11:10:07;10.47;;;8.03;;
836;SDS011;400;53.550;9.932;2022-10-18T11:12:51;8.93;;;7.53;;
836;SDS011;400;53.550;9.932;2022-10-18T11:15:31;12.83;;;7.60;;
836;SDS011;400;53.550;9.932;2022-10-18T11:18:14;10.50;;;5.70;;
836;SDS011;400;53.550;9.932;2022-10-18T11:21:02;7.57;;;5.57;;
836;SDS011;400;53.550;9.932;2022-10-18T11:23:38;9.40;;;6.40;;
836;SDS011;400;53.550;9.932;2022-10-18T11:29:01;6.57;;;4.20;;
836;SDS011;400;53.550;9.932;2022-10-18T11:31:50;5.10;;;4.27;;
836;SDS011;400;53.550;9.932;2022-10-18T11:34:30;7.70;;;4.00;;
836;SDS011;400;53.550;9.932;2022-10-18T11:37:09;9.27;;;4.83;;
836;SDS011;400;53.550;9.932;2022-10-18T11:39:53;8.60;;;5.07;;
836;SDS011;400;53.550;9.932;2022-10-18T11:42:29;5.43;;;4.70;;
836;SDS011;400;53.550;9.932;2022-10-18T11:45:06;7.70;;;4.50;;
836;SDS011;400;53.550;9.932;2022-10-18T11:47:46;8.10;;;4.70;;
836;SDS011;400;53.550;9.932;2022-10-18T11:50:29;11.37;;;6.00;;
836;SDS011;400;53.550;9.932;2022-10-18T11:53:08;6.97;;;5.30;;
836;SDS011;400;53.550;9.932;2022-10-18T11:55:50;9.60;;;5.60;;
836;SDS011;400;53.550;9.932;2022-10-18T11:58:29;8.83;;;5.97;;
836;SDS011;400;53.550;9.932;2022-10-18T12:01:10;9.57;;;5.13;;
836;SDS011;400;53.550;9.932;2022-10-18T12:03:44;10.50;;;4.80;;
836;SDS011;400;53.550;9.932;2022-10-18T12:06:20;8.57;;;5.67;;
836;SDS011;400;53.550;9.932;2022-10-18T12:08:51;8.30;;;4.87;;
836;SDS011;400;53.550;9.932;2022-10-18T12:11:23;10.20;;;4.77;;
836;SDS011;400;53.550;9.932;2022-10-18T12:13:55;5.90;;;4.70;;
836;SDS011;400;53.550;9.932;2022-10-18T12:16:27;9.07;;;5.70;;
836;SDS011;400;53.550;9.932;2022-10-18T12:19:06;10.17;;;5.80;;
836;SDS011;400;53.550;9.932;2022-10-18T12:21:43;10.57;;;6.10;;
836;SDS011;400;53.550;9.932;2022-10-18T12:24:16;8.13;;;5.33;;
836;SDS011;400;53.550;9.932;2022-10-18T12:26:56;9.43;;;4.30;;
836;SDS011;400;53.550;9.932;2022-10-18T12:29:31;8.37;;;3.20;;
836;SDS011;400;53.550;9.932;2022-10-18T12:32:07;6.57;;;3.90;;
836;SDS011;400;53.550;9.932;2022-10-18T12:34:39;7.63;;;2.93;;
836;SDS011;400;53.550;9.932;2022-10-18T12:37:13;2.90;;;2.10;;
836;SDS011;400;53.550;9.932;2022-10-18T12:39:55;4.20;;;2.03;;
836;SDS011;400;53.550;9.932;2022-10-18T12:42:31;5.87;;;2.73;;
836;SDS011;400;53.550;9.932;2022-10-18T12:45:18;4.57;;;2.23;;
836;SDS011;400;53.550;9.932;2022-10-18T12:47:54;4.83;;;2.33;;
836;SDS011;400;53.550;9.932;2022-10-18T12:50:37;4.80;;;2.70;;
836;SDS011;400;53.550;9.932;2022-10-18T12:53:13;6.47;;;2.37;;
836;SDS011;400;53.550;9.932;2022-10-18T12:55:46;3.73;;;1.97;;
836;SDS011;400;53.550;9.932;2022-10-18T12:58:23;4.83;;;2.27;;
836;SDS011;400;53.550;9.932;2022-10-18T13:01:00;4.90;;;2.10;;
836;SDS011;400;53.550;9.932;2022-10-18T13:06:22;8.50;;;2.27;;
836;SDS011;400;53.550;9.932;2022-10-18T13:09:16;53.37;;;47.80;;
836;SDS011;400;53.550;9.932;2022-10-18T13:11:53;4.07;;;2.33;;
836;SDS011;400;53.550;9.932;2022-10-18T13:17:28;4.80;;;1.90;;
836;SDS011;400;53.550;9.932;2022-10-18T13:20:14;6.40;;;2.13;;
836;SDS011;400;53.550;9.932;2022-10-18T13:22:54;3.47;;;1.70;;
836;SDS011;400;53.550;9.932;2022-10-18T13:25:31;6.20;;;1.70;;
836;SDS011;400;53.550;9.932;2022-10-18T13:28:18;9.43;;;2.30;;
836;SDS011;400;53.550;9.932;2022-10-18T13:30:55;4.20;;;2.13;;
836;SDS011;400;53.550;9.932;2022-10-18T13:33:34;6.20;;;2.67;;
836;SDS011;400;53.550;9.932;2022-10-18T13:36:19;3.90;;;1.90;;
836;SDS011;400;53.550;9.932;2022-10-18T13:39:03;5.37;;;1.97;;
836;SDS011;400;53.550;9.932;2022-10-18T13:44:38;5.20;;;1.37;;
836;SDS011;400;53.550;9.932;2022-10-18T13:47:15;5.83;;;1.77;;
836;SDS011;400;53.550;9.932;2022-10-18T13:50:21;4.47;;;1.37;;
836;SDS011;400;53.550;9.932;2022-10-18T13:53:12;7.73;;;3.07;;
836;SDS011;400;53.550;9.932;2022-10-18T13:56:13;2.70;;;2.37;;
836;SDS011;400;53.550;9.932;2022-10-18T13:59:09;6.07;;;2.13;;
836;SDS011;400;53.550;9.932;2022-10-18T14:05:40;6.57;;;2.17;;
836;SDS011;400;53.550;9.932;2022-10-18T14:08:19;9.23;;;2.57;;
836;SDS011;400;53.550;9.932;2022-10-18T14:10:55;4.17;;;1.63;;
836;SDS011;400;53.550;9.932;2022-10-18T14:13:27;6.40;;;2.17;;
836;SDS011;400;53.550;9.932;2022-10-18T14:16:03;6.57;;;2.10;;
836;SDS011;400;53.550;9.932;2022-10-18T14:18:48;5.83;;;2.33;;
836;SDS011;400;53.550;9.932;2022-10-18T14:21:28;2.90;;;1.50;;
836;SDS011;400;53.550;9.932;2022-10-18T14:24:02;4.80;;;2.10;;
836;SDS011;400;53.550;9.932;2022-10-18T14:26:40;5.60;;;1.83;;
836;SDS011;400;53.550;9.932;2022-10-18T14:29:14;5.53;;;1.40;;
836;SDS011;400;53.550;9.932;2022-10-18T14:31:52;8.57;;;2.30;;
836;SDS011;400;53.550;9.932;2022-10-18T14:34:24;3.40;;;1.40;;
836;SDS011;400;53.550;9.932;2022-10-18T14:36:54;5.03;;;1.47;;
836;SDS011;400;53.550;9.932;2022-10-18T14:39:24;8.63;;;2.40;;
836;SDS011;400;53.550;9.932;2022-10-18T14:41:55;5.07;;;1.93;;
836;SDS011;400;53.550;9.932;2022-10-18T14:44:27;4.93;;;1.27;;
836;SDS011;400;53.550;9.932;2022-10-18T14:47:01;10.07;;;2.43;;
836;SDS011;400;53.550;9.932;2022-10-18T14:49:29;4.60;;;2.00;;
836;SDS011;400;53.550;9.932;2022-10-18T14:52:01;7.27;;;2.43;;
836;SDS011;400;53.550;9.932;2022-10-18T14:54:31;9.70;;;2.40;;
836;SDS011;400;53.550;9.932;2022-10-18T14:57:05;8.07;;;2.13;;
836;SDS011;400;53.550;9.932;2022-10-18T14:59:37;7.47;;;1.83;;
836;SDS011;400;53.550;9.932;2022-10-18T15:02:12;5.17;;;1.73;;
836;SDS011;400;53.550;9.932;2022-10-18T15:04:52;6.93;;;2.23;;
836;SDS011;400;53.550;9.932;2022-10-18T15:07:25;8.97;;;2.50;;
836;SDS011;400;53.550;9.932;2022-10-18T15:09:56;5.97;;;2.27;;
836;SDS011;400;53.550;9.932;2022-10-18T15:12:25;8.60;;;2.80;;
836;SDS011;400;53.550;9.932;2022-10-18T15:15:00;5.70;;;2.27;;
836;SDS011;400;53.550;9.932;2022-10-18T15:17:33;7.63;;;1.80;;
836;SDS011;400;53.550;9.932;2022-10-18T15:20:17;7.37;;;2.37;;
836;SDS011;400;53.550;9.932;2022-10-18T15:23:17;7.83;;;2.70;;
836;SDS011;400;53.550;9.932;2022-10-18T15:25:50;13.17;;;2.47;;
836;SDS011;400;53.550;9.932;2022-10-18T15:28:28;9.00;;;2.40;;
836;SDS011;400;53.550;9.932;2022-10-18T15:30:57;3.60;;;1.00;;
836;SDS011;400;53.550;9.932;2022-10-18T15:33:32;6.27;;;1.87;;
836;SDS011;400;53.550;9.932;2022-10-18T15:36:10;8.33;;;2.40;;
836;SDS011;400;53.550;9.932;2022-10-18T15:39:12;4.80;;;1.83;;
836;SDS011;400;53.550;9.932;2022-10-18T15:41:47;5.30;;;2.10;;
836;SDS011;400;53.550;9.932;2022-10-18T15:44:23;6.30;;;2.30;;
836;SDS011;400;53.550;9.932;2022-10-18T15:47:08;6.13;;;1.80;;
836;SDS011;400;53.550;9.932;2022-10-18T15:52:36;8.97;;;2.83;;
836;SDS011;400;53.550;9.932;2022-10-18T15:58:20;4.03;;;1.70;;
836;SDS011;400;53.550;9.932;2022-10-18T16:00:57;3.03;;;1.80;;
836;SDS011;400;53.550;9.932;2022-10-18T16:03:26;7.27;;;2.27;;
836;SDS011;400;53.550;9.932;2022-10-18T16:05:55;6.13;;;2.13;;
836;SDS011;400;53.550;9.932;2022-10-18T16:08:25;7.70;;;1.90;;
836;SDS011;400;53.550;9.932;2022-10-18T16:11:06;4.47;;;1.70;;
836;SDS011;400;53.550;9.932;2022-10-18T16:13:40;6.50;;;2.20;;
836;SDS011;400;53.550;9.932;2022-10-18T16:16:09;6.17;;;2.10;;
836;SDS011;400;53.550;9.932;2022-10-18T16:18:39;4.23;;;1.70;;
836;SDS011;400;53.550;9.932;2022-10-18T16:21:09;6.20;;;2.10;;
836;SDS011;400;53.550;9.932;2022-10-18T16:23:47;9.23;;;3.70;;
836;SDS011;400;53.550;9.932;2022-10-18T16:26:21;7.07;;;2.43;;
836;SDS011;400;53.550;9.932;2022-10-18T16:28:53;5.37;;;2.67;;